sensor_id;sensor_type;location;lat;lon;timestamp;temperature;humidity
40952;DHT22;26682;51.660;19.338;2022-07-23T00:00:41;20.60;99.90
40952;DHT22;26682;51.660;19.338;2022-07-23T00:02:27;20.60;99.90
40952;DHT22;26682;51.660;19.338;2022-07-23T00:04:13;20.60;99.90
40952;DHT22;26682;51.660;19.338;2022-07-23T00:05:59;20.60;99.90
40952;DHT22;26682;51.660;19.338;2022-07-23T00:07:45;20.60;99.90
40952;DHT22;26682;51.660;19.338;2022-07-23T00:09:31;20.60;99.90
40952;DHT22;26682;51.660;19.338;2022-07-23T00:11:17;20.60;99.90
40952;DHT22;26682;51.660;19.338;2022-07-23T00:13:03;20.60;99.90
40952;DHT22;26682;51.660;19.338;2022-07-23T00:14:49;20.60;99.90
40952;DHT22;26682;51.660;19.338;2022-07-23T00:16:36;20.60;99.90
40952;DHT22;26682;51.660;19.338;2022-07-23T00:18:22;20.60;99.90
40952;DHT22;26682;51.660;19.338;2022-07-23T00:20:08;20.60;99.90
40952;DHT22;26682;51.660;19.338;2022-07-23T00:21:54;20.50;99.90
40952;DHT22;26682;51.660;19.338;2022-07-23T00:23:41;20.50;99.90
40952;DHT22;26682;51.660;19.338;2022-07-23T00:25:27;20.50;99.90
40952;DHT22;26682;51.660;19.338;2022-07-23T00:27:13;20.50;99.90
40952;DHT22;26682;51.660;19.338;2022-07-23T00:28:58;20.50;99.90
40952;DHT22;26682;51.660;19.338;2022-07-23T00:30:45;20.40;99.90
40952;DHT22;26682;51.660;19.338;2022-07-23T00:32:30;20.40;99.90
40952;DHT22;26682;51.660;19.338;2022-07-23T00:34:17;20.40;99.90
40952;DHT22;26682;51.660;19.338;2022-07-23T00:36:04;20.30;99.90
40952;DHT22;26682;51.660;19.338;2022-07-23T00:37:53;20.30;99.90
40952;DHT22;26682;51.660;19.338;2022-07-23T00:39:39;20.30;99.90
40952;DHT22;26682;51.660;19.338;2022-07-23T00:41:25;20.30;99.90
40952;DHT22;26682;51.660;19.338;2022-07-23T00:43:11;20.30;99.90
40952;DHT22;26682;51.660;19.338;2022-07-23T00:44:57;20.20;99.90
40952;DHT22;26682;51.660;19.338;2022-07-23T00:46:49;20.20;99.90
40952;DHT22;26682;51.660;19.338;2022-07-23T00:48:35;20.20;99.90
40952;DHT22;26682;51.660;19.338;2022-07-23T00:50:21;20.20;99.90
40952;DHT22;26682;51.660;19.338;2022-07-23T00:52:07;20.10;99.90
40952;DHT22;26682;51.660;19.338;2022-07-23T00:53:53;20.10;99.90
40952;DHT22;26682;51.660;19.338;2022-07-23T00:55:39;20.10;99.90
40952;DHT22;26682;51.660;19.338;2022-07-23T00:57:25;20.10;99.90
40952;DHT22;26682;51.660;19.338;2022-07-23T00:59:11;20.10;99.90
40952;DHT22;26682;51.660;19.338;2022-07-23T01:00:58;20.10;99.90
40952;DHT22;26682;51.660;19.338;2022-07-23T01:02:44;20.10;99.90
40952;DHT22;26682;51.660;19.338;2022-07-23T01:04:30;20.10;99.90
40952;DHT22;26682;51.660;19.338;2022-07-23T01:06:17;20.00;99.90
40952;DHT22;26682;51.660;19.338;2022-07-23T01:08:03;20.00;99.90
40952;DHT22;26682;51.660;19.338;2022-07-23T01:09:51;20.00;99.90
40952;DHT22;26682;51.660;19.338;2022-07-23T01:11:37;20.00;99.90
40952;DHT22;26682;51.660;19.338;2022-07-23T01:13:26;20.00;99.90
40952;DHT22;26682;51.660;19.338;2022-07-23T01:15:12;19.90;99.90
40952;DHT22;26682;51.660;19.338;2022-07-23T01:16:58;19.90;99.90
40952;DHT22;26682;51.660;19.338;2022-07-23T01:18:44;19.90;99.90
40952;DHT22;26682;51.660;19.338;2022-07-23T01:20:30;19.90;99.90
40952;DHT22;26682;51.660;19.338;2022-07-23T01:22:20;19.80;99.90
40952;DHT22;26682;51.660;19.338;2022-07-23T01:24:07;19.80;99.90
40952;DHT22;26682;51.660;19.338;2022-07-23T01:25:55;19.80;99.90
40952;DHT22;26682;51.660;19.338;2022-07-23T01:27:43;19.80;99.90
40952;DHT22;26682;51.660;19.338;2022-07-23T01:29:29;19.80;99.90
40952;DHT22;26682;51.660;19.338;2022-07-23T01:31:17;19.70;99.90
40952;DHT22;26682;51.660;19.338;2022-07-23T01:33:03;19.70;99.90
40952;DHT22;26682;51.660;19.338;2022-07-23T01:34:49;19.60;99.90
40952;DHT22;26682;51.660;19.338;2022-07-23T01:36:36;19.60;99.90
40952;DHT22;26682;51.660;19.338;2022-07-23T01:38:23;19.60;99.90
40952;DHT22;26682;51.660;19.338;2022-07-23T01:40:09;19.60;99.90
40952;DHT22;26682;51.660;19.338;2022-07-23T01:41:56;19.50;99.90
40952;DHT22;26682;51.660;19.338;2022-07-23T01:43:43;19.50;99.90
40952;DHT22;26682;51.660;19.338;2022-07-23T01:45:29;19.50;99.90
40952;DHT22;26682;51.660;19.338;2022-07-23T01:47:15;19.50;99.90
40952;DHT22;26682;51.660;19.338;2022-07-23T01:49:02;19.50;99.90
40952;DHT22;26682;51.660;19.338;2022-07-23T01:51:04;19.40;99.90
40952;DHT22;26682;51.660;19.338;2022-07-23T01:53:00;19.40;99.90
40952;DHT22;26682;51.660;19.338;2022-07-23T01:54:46;19.40;99.90
40952;DHT22;26682;51.660;19.338;2022-07-23T01:56:32;19.30;99.90
40952;DHT22;26682;51.660;19.338;2022-07-23T01:58:18;19.30;99.90
40952;DHT22;26682;51.660;19.338;2022-07-23T02:00:04;19.30;99.90
40952;DHT22;26682;51.660;19.338;2022-07-23T02:01:58;19.20;99.90
40952;DHT22;26682;51.660;19.338;2022-07-23T02:03:45;19.20;99.90
40952;DHT22;26682;51.660;19.338;2022-07-23T02:05:31;19.20;99.90
40952;DHT22;26682;51.660;19.338;2022-07-23T02:07:18;19.20;99.90
40952;DHT22;26682;51.660;19.338;2022-07-23T02:09:04;19.10;99.90
40952;DHT22;26682;51.660;19.338;2022-07-23T02:11:08;19.10;99.90
40952;DHT22;26682;51.660;19.338;2022-07-23T02:12:54;19.10;99.90
40952;DHT22;26682;51.660;19.338;2022-07-23T02:14:40;19.10;99.90
40952;DHT22;26682;51.660;19.338;2022-07-23T02:16:27;19.00;99.90
40952;DHT22;26682;51.660;19.338;2022-07-23T02:18:13;19.00;99.90
40952;DHT22;26682;51.660;19.338;2022-07-23T02:19:58;19.00;99.90
40952;DHT22;26682;51.660;19.338;2022-07-23T02:21:45;18.90;99.90
40952;DHT22;26682;51.660;19.338;2022-07-23T02:23:30;18.90;99.90
40952;DHT22;26682;51.660;19.338;2022-07-23T02:25:16;18.90;99.90
40952;DHT22;26682;51.660;19.338;2022-07-23T02:27:02;18.90;99.90
40952;DHT22;26682;51.660;19.338;2022-07-23T02:28:48;18.80;99.90
40952;DHT22;26682;51.660;19.338;2022-07-23T02:30:34;18.80;99.90
40952;DHT22;26682;51.660;19.338;2022-07-23T02:32:20;18.80;99.90
40952;DHT22;26682;51.660;19.338;2022-07-23T02:34:07;18.70;99.90
40952;DHT22;26682;51.660;19.338;2022-07-23T02:35:53;18.70;99.90
40952;DHT22;26682;51.660;19.338;2022-07-23T02:37:40;18.80;99.90
40952;DHT22;26682;51.660;19.338;2022-07-23T02:39:26;18.80;99.90
40952;DHT22;26682;51.660;19.338;2022-07-23T02:41:12;18.70;99.90
40952;DHT22;26682;51.660;19.338;2022-07-23T02:42:59;18.70;99.90
40952;DHT22;26682;51.660;19.338;2022-07-23T02:44:45;18.70;99.90
40952;DHT22;26682;51.660;19.338;2022-07-23T02:46:32;18.70;99.90
40952;DHT22;26682;51.660;19.338;2022-07-23T02:48:18;18.80;99.90
40952;DHT22;26682;51.660;19.338;2022-07-23T02:50:07;18.70;99.90
40952;DHT22;26682;51.660;19.338;2022-07-23T02:51:53;18.70;99.90
40952;DHT22;26682;51.660;19.338;2022-07-23T02:53:39;18.80;99.90
40952;DHT22;26682;51.660;19.338;2022-07-23T02:55:25;18.80;99.90
40952;DHT22;26682;51.660;19.338;2022-07-23T02:57:12;18.80;99.90
40952;DHT22;26682;51.660;19.338;2022-07-23T02:58:58;18.80;99.90
40952;DHT22;26682;51.660;19.338;2022-07-23T03:00:44;18.80;99.90
40952;DHT22;26682;51.660;19.338;2022-07-23T03:02:31;18.70;99.90
40952;DHT22;26682;51.660;19.338;2022-07-23T03:04:17;18.80;99.90
40952;DHT22;26682;51.660;19.338;2022-07-23T03:06:03;18.80;99.90
40952;DHT22;26682;51.660;19.338;2022-07-23T03:07:49;18.80;99.90
40952;DHT22;26682;51.660;19.338;2022-07-23T03:09:35;18.80;99.90
40952;DHT22;26682;51.660;19.338;2022-07-23T03:11:20;18.80;99.90
40952;DHT22;26682;51.660;19.338;2022-07-23T03:13:08;18.80;99.90
40952;DHT22;26682;51.660;19.338;2022-07-23T03:14:55;18.80;99.90
40952;DHT22;26682;51.660;19.338;2022-07-23T03:16:40;18.80;99.90
40952;DHT22;26682;51.660;19.338;2022-07-23T03:18:26;18.80;99.90
40952;DHT22;26682;51.660;19.338;2022-07-23T03:20:13;18.80;99.90
40952;DHT22;26682;51.660;19.338;2022-07-23T03:21:59;18.80;99.90
40952;DHT22;26682;51.660;19.338;2022-07-23T03:23:45;18.80;99.90
40952;DHT22;26682;51.660;19.338;2022-07-23T03:25:32;18.80;99.90
40952;DHT22;26682;51.660;19.338;2022-07-23T03:27:19;18.90;99.90
40952;DHT22;26682;51.660;19.338;2022-07-23T03:29:06;18.90;99.90
40952;DHT22;26682;51.660;19.338;2022-07-23T03:30:52;18.90;99.90
40952;DHT22;26682;51.660;19.338;2022-07-23T03:32:40;19.00;99.90
40952;DHT22;26682;51.660;19.338;2022-07-23T03:34:26;19.00;99.90
40952;DHT22;26682;51.660;19.338;2022-07-23T03:36:12;19.00;99.90
40952;DHT22;26682;51.660;19.338;2022-07-23T03:38:01;19.00;99.90
40952;DHT22;26682;51.660;19.338;2022-07-23T03:39:47;19.10;99.90
40952;DHT22;26682;51.660;19.338;2022-07-23T03:41:34;19.10;99.90
40952;DHT22;26682;51.660;19.338;2022-07-23T03:43:20;19.10;99.90
40952;DHT22;26682;51.660;19.338;2022-07-23T03:45:06;19.20;99.90
40952;DHT22;26682;51.660;19.338;2022-07-23T03:46:52;19.20;99.90
40952;DHT22;26682;51.660;19.338;2022-07-23T03:48:38;19.30;99.90
40952;DHT22;26682;51.660;19.338;2022-07-23T03:50:24;19.30;99.90
40952;DHT22;26682;51.660;19.338;2022-07-23T03:52:10;19.40;99.90
40952;DHT22;26682;51.660;19.338;2022-07-23T03:53:56;19.40;99.90
40952;DHT22;26682;51.660;19.338;2022-07-23T03:55:42;19.50;99.90
40952;DHT22;26682;51.660;19.338;2022-07-23T03:57:29;19.50;99.90
40952;DHT22;26682;51.660;19.338;2022-07-23T03:59:15;19.50;99.90
40952;DHT22;26682;51.660;19.338;2022-07-23T04:01:01;19.60;99.90
40952;DHT22;26682;51.660;19.338;2022-07-23T04:02:47;19.60;99.90
40952;DHT22;26682;51.660;19.338;2022-07-23T04:04:33;19.70;99.90
40952;DHT22;26682;51.660;19.338;2022-07-23T04:06:19;19.70;99.90
40952;DHT22;26682;51.660;19.338;2022-07-23T04:08:06;19.80;99.90
40952;DHT22;26682;51.660;19.338;2022-07-23T04:09:54;19.90;99.90
40952;DHT22;26682;51.660;19.338;2022-07-23T04:11:40;19.90;99.90
40952;DHT22;26682;51.660;19.338;2022-07-23T04:13:26;20.00;99.90
40952;DHT22;26682;51.660;19.338;2022-07-23T04:15:12;20.10;99.90
40952;DHT22;26682;51.660;19.338;2022-07-23T04:16:59;20.10;99.90
40952;DHT22;26682;51.660;19.338;2022-07-23T04:18:45;20.20;99.90
40952;DHT22;26682;51.660;19.338;2022-07-23T04:20:35;20.20;99.90
40952;DHT22;26682;51.660;19.338;2022-07-23T04:22:22;20.30;99.90
40952;DHT22;26682;51.660;19.338;2022-07-23T04:24:08;20.30;99.90
40952;DHT22;26682;51.660;19.338;2022-07-23T04:25:55;20.40;99.90
40952;DHT22;26682;51.660;19.338;2022-07-23T04:27:41;20.40;99.90
40952;DHT22;26682;51.660;19.338;2022-07-23T04:29:28;20.50;99.90
40952;DHT22;26682;51.660;19.338;2022-07-23T04:31:14;20.60;99.90
40952;DHT22;26682;51.660;19.338;2022-07-23T04:33:00;20.70;99.90
40952;DHT22;26682;51.660;19.338;2022-07-23T04:34:47;20.90;99.90
40952;DHT22;26682;51.660;19.338;2022-07-23T04:36:34;21.00;99.90
40952;DHT22;26682;51.660;19.338;2022-07-23T04:38:20;21.10;99.90
40952;DHT22;26682;51.660;19.338;2022-07-23T04:40:09;21.30;99.90
40952;DHT22;26682;51.660;19.338;2022-07-23T04:41:55;21.40;99.90
40952;DHT22;26682;51.660;19.338;2022-07-23T04:43:41;21.60;99.90
40952;DHT22;26682;51.660;19.338;2022-07-23T04:45:27;21.80;99.90
40952;DHT22;26682;51.660;19.338;2022-07-23T04:47:13;22.00;99.90
40952;DHT22;26682;51.660;19.338;2022-07-23T04:49:02;22.10;99.90
40952;DHT22;26682;51.660;19.338;2022-07-23T04:50:49;22.30;99.90
40952;DHT22;26682;51.660;19.338;2022-07-23T04:52:38;22.50;99.90
40952;DHT22;26682;51.660;19.338;2022-07-23T04:54:24;22.70;99.90
40952;DHT22;26682;51.660;19.338;2022-07-23T04:56:10;22.80;99.90
40952;DHT22;26682;51.660;19.338;2022-07-23T04:57:56;22.90;99.90
40952;DHT22;26682;51.660;19.338;2022-07-23T04:59:43;23.00;99.90
40952;DHT22;26682;51.660;19.338;2022-07-23T05:01:30;23.30;99.90
40952;DHT22;26682;51.660;19.338;2022-07-23T05:03:17;23.50;99.90
40952;DHT22;26682;51.660;19.338;2022-07-23T05:05:05;23.70;99.90
40952;DHT22;26682;51.660;19.338;2022-07-23T05:06:52;24.00;99.90
40952;DHT22;26682;51.660;19.338;2022-07-23T05:08:38;24.30;99.90
40952;DHT22;26682;51.660;19.338;2022-07-23T05:10:24;24.70;99.90
40952;DHT22;26682;51.660;19.338;2022-07-23T05:12:10;24.90;99.90
40952;DHT22;26682;51.660;19.338;2022-07-23T05:13:57;25.10;99.90
40952;DHT22;26682;51.660;19.338;2022-07-23T05:15:43;25.30;99.90
40952;DHT22;26682;51.660;19.338;2022-07-23T05:17:30;25.50;99.90
40952;DHT22;26682;51.660;19.338;2022-07-23T05:19:16;25.70;99.90
40952;DHT22;26682;51.660;19.338;2022-07-23T05:21:04;25.90;99.90
40952;DHT22;26682;51.660;19.338;2022-07-23T05:22:50;26.00;99.90
40952;DHT22;26682;51.660;19.338;2022-07-23T05:24:36;26.20;99.90
40952;DHT22;26682;51.660;19.338;2022-07-23T05:26:23;26.30;99.90
40952;DHT22;26682;51.660;19.338;2022-07-23T05:28:10;26.30;99.90
40952;DHT22;26682;51.660;19.338;2022-07-23T05:29:56;26.30;99.90
40952;DHT22;26682;51.660;19.338;2022-07-23T05:31:42;26.20;99.90
40952;DHT22;26682;51.660;19.338;2022-07-23T05:33:28;26.20;99.90
40952;DHT22;26682;51.660;19.338;2022-07-23T05:35:14;26.10;99.90
40952;DHT22;26682;51.660;19.338;2022-07-23T05:37:05;26.30;99.90
40952;DHT22;26682;51.660;19.338;2022-07-23T05:38:52;26.50;99.90
40952;DHT22;26682;51.660;19.338;2022-07-23T05:40:38;26.80;99.90
40952;DHT22;26682;51.660;19.338;2022-07-23T05:42:24;27.00;99.90
40952;DHT22;26682;51.660;19.338;2022-07-23T05:44:10;27.40;99.90
40952;DHT22;26682;51.660;19.338;2022-07-23T05:45:59;27.40;99.90
40952;DHT22;26682;51.660;19.338;2022-07-23T05:47:48;27.30;99.90
40952;DHT22;26682;51.660;19.338;2022-07-23T05:49:41;27.40;99.90
40952;DHT22;26682;51.660;19.338;2022-07-23T05:51:46;27.50;99.90
40952;DHT22;26682;51.660;19.338;2022-07-23T05:53:33;27.80;99.90
40952;DHT22;26682;51.660;19.338;2022-07-23T05:55:46;28.00;99.90
40952;DHT22;26682;51.660;19.338;2022-07-23T05:57:32;28.20;99.90
40952;DHT22;26682;51.660;19.338;2022-07-23T05:59:17;28.10;99.90
40952;DHT22;26682;51.660;19.338;2022-07-23T06:01:04;28.30;99.90
40952;DHT22;26682;51.660;19.338;2022-07-23T06:02:57;28.30;99.90
40952;DHT22;26682;51.660;19.338;2022-07-23T06:04:45;28.20;99.90
40952;DHT22;26682;51.660;19.338;2022-07-23T06:06:43;28.30;99.90
40952;DHT22;26682;51.660;19.338;2022-07-23T06:08:30;28.30;99.90
40952;DHT22;26682;51.660;19.338;2022-07-23T06:10:16;28.20;99.90
40952;DHT22;26682;51.660;19.338;2022-07-23T06:12:03;28.20;99.90
40952;DHT22;26682;51.660;19.338;2022-07-23T06:13:50;28.30;99.90
40952;DHT22;26682;51.660;19.338;2022-07-23T06:15:38;28.50;99.90
40952;DHT22;26682;51.660;19.338;2022-07-23T06:17:24;28.60;99.90
40952;DHT22;26682;51.660;19.338;2022-07-23T06:19:11;28.60;99.90
40952;DHT22;26682;51.660;19.338;2022-07-23T06:20:57;28.60;99.90
40952;DHT22;26682;51.660;19.338;2022-07-23T06:22:43;28.70;99.90
40952;DHT22;26682;51.660;19.338;2022-07-23T06:24:31;28.80;99.90
40952;DHT22;26682;51.660;19.338;2022-07-23T06:26:17;28.80;99.90
40952;DHT22;26682;51.660;19.338;2022-07-23T06:28:04;28.70;99.90
40952;DHT22;26682;51.660;19.338;2022-07-23T06:29:50;28.90;99.90
40952;DHT22;26682;51.660;19.338;2022-07-23T06:31:36;29.10;99.90
40952;DHT22;26682;51.660;19.338;2022-07-23T06:33:22;29.10;99.90
40952;DHT22;26682;51.660;19.338;2022-07-23T06:35:08;29.20;99.90
40952;DHT22;26682;51.660;19.338;2022-07-23T06:36:54;29.00;99.90
40952;DHT22;26682;51.660;19.338;2022-07-23T06:38:40;29.20;98.90
40952;DHT22;26682;51.660;19.338;2022-07-23T06:40:26;29.20;99.30
40952;DHT22;26682;51.660;19.338;2022-07-23T06:42:13;29.30;99.50
40952;DHT22;26682;51.660;19.338;2022-07-23T06:44:03;29.40;99.80
40952;DHT22;26682;51.660;19.338;2022-07-23T06:45:51;29.60;99.40
40952;DHT22;26682;51.660;19.338;2022-07-23T06:47:37;29.60;99.00
40952;DHT22;26682;51.660;19.338;2022-07-23T06:49:24;29.70;98.40
40952;DHT22;26682;51.660;19.338;2022-07-23T06:51:10;29.60;98.10
40952;DHT22;26682;51.660;19.338;2022-07-23T06:52:56;29.50;98.10
40952;DHT22;26682;51.660;19.338;2022-07-23T06:54:42;29.40;98.40
40952;DHT22;26682;51.660;19.338;2022-07-23T06:56:28;29.30;98.60
40952;DHT22;26682;51.660;19.338;2022-07-23T06:58:15;29.30;97.90
40952;DHT22;26682;51.660;19.338;2022-07-23T07:00:01;29.30;97.80
40952;DHT22;26682;51.660;19.338;2022-07-23T07:01:47;29.40;97.70
40952;DHT22;26682;51.660;19.338;2022-07-23T07:03:33;29.50;98.10
40952;DHT22;26682;51.660;19.338;2022-07-23T07:05:20;29.60;98.40
40952;DHT22;26682;51.660;19.338;2022-07-23T07:07:06;29.70;97.50
40952;DHT22;26682;51.660;19.338;2022-07-23T07:08:52;29.70;97.40
40952;DHT22;26682;51.660;19.338;2022-07-23T07:10:38;29.50;97.30
40952;DHT22;26682;51.660;19.338;2022-07-23T07:12:24;29.40;97.20
40952;DHT22;26682;51.660;19.338;2022-07-23T07:14:10;29.30;97.70
40952;DHT22;26682;51.660;19.338;2022-07-23T07:15:56;29.30;97.30
40952;DHT22;26682;51.660;19.338;2022-07-23T07:17:42;29.40;96.80
40952;DHT22;26682;51.660;19.338;2022-07-23T07:19:28;29.50;97.20
40952;DHT22;26682;51.660;19.338;2022-07-23T07:21:14;29.70;97.20
40952;DHT22;26682;51.660;19.338;2022-07-23T07:23:00;29.70;96.50
40952;DHT22;26682;51.660;19.338;2022-07-23T07:24:46;29.70;96.00
40952;DHT22;26682;51.660;19.338;2022-07-23T07:26:32;29.50;97.10
40952;DHT22;26682;51.660;19.338;2022-07-23T07:28:18;29.60;97.20
40952;DHT22;26682;51.660;19.338;2022-07-23T07:30:05;29.70;96.50
40952;DHT22;26682;51.660;19.338;2022-07-23T07:31:51;29.80;96.10
40952;DHT22;26682;51.660;19.338;2022-07-23T07:33:37;29.90;95.70
40952;DHT22;26682;51.660;19.338;2022-07-23T07:35:24;29.90;95.90
40952;DHT22;26682;51.660;19.338;2022-07-23T07:37:10;30.00;95.60
40952;DHT22;26682;51.660;19.338;2022-07-23T07:38:56;30.00;95.30
40952;DHT22;26682;51.660;19.338;2022-07-23T07:40:42;30.00;95.10
40952;DHT22;26682;51.660;19.338;2022-07-23T07:42:28;29.50;95.20
40952;DHT22;26682;51.660;19.338;2022-07-23T07:44:14;29.40;94.90
40952;DHT22;26682;51.660;19.338;2022-07-23T07:46:00;29.30;95.80
40952;DHT22;26682;51.660;19.338;2022-07-23T07:47:47;29.60;95.90
40952;DHT22;26682;51.660;19.338;2022-07-23T07:49:33;29.80;95.40
40952;DHT22;26682;51.660;19.338;2022-07-23T07:51:19;30.00;94.90
40952;DHT22;26682;51.660;19.338;2022-07-23T07:53:05;30.10;94.70
40952;DHT22;26682;51.660;19.338;2022-07-23T07:54:51;30.20;94.60
40952;DHT22;26682;51.660;19.338;2022-07-23T07:56:36;30.30;94.30
40952;DHT22;26682;51.660;19.338;2022-07-23T07:58:23;30.40;94.20
40952;DHT22;26682;51.660;19.338;2022-07-23T08:00:10;30.40;93.60
40952;DHT22;26682;51.660;19.338;2022-07-23T08:01:59;30.30;93.60
40952;DHT22;26682;51.660;19.338;2022-07-23T08:03:46;30.10;93.50
40952;DHT22;26682;51.660;19.338;2022-07-23T08:05:31;30.10;94.00
40952;DHT22;26682;51.660;19.338;2022-07-23T08:07:18;30.10;93.60
40952;DHT22;26682;51.660;19.338;2022-07-23T08:09:04;29.90;93.70
40952;DHT22;26682;51.660;19.338;2022-07-23T08:10:50;29.90;94.50
40952;DHT22;26682;51.660;19.338;2022-07-23T08:12:49;29.90;94.70
40952;DHT22;26682;51.660;19.338;2022-07-23T08:14:35;29.90;94.50
40952;DHT22;26682;51.660;19.338;2022-07-23T08:16:21;30.00;93.80
40952;DHT22;26682;51.660;19.338;2022-07-23T08:18:07;30.10;94.60
40952;DHT22;26682;51.660;19.338;2022-07-23T08:19:54;30.30;94.70
40952;DHT22;26682;51.660;19.338;2022-07-23T08:21:40;30.50;93.20
40952;DHT22;26682;51.660;19.338;2022-07-23T08:23:26;30.60;93.40
40952;DHT22;26682;51.660;19.338;2022-07-23T08:25:15;30.70;92.70
40952;DHT22;26682;51.660;19.338;2022-07-23T08:27:02;31.00;92.40
40952;DHT22;26682;51.660;19.338;2022-07-23T08:28:48;31.30;91.40
40952;DHT22;26682;51.660;19.338;2022-07-23T08:30:36;31.40;90.70
40952;DHT22;26682;51.660;19.338;2022-07-23T08:32:22;31.40;90.00
40952;DHT22;26682;51.660;19.338;2022-07-23T08:34:08;31.30;89.60
40952;DHT22;26682;51.660;19.338;2022-07-23T08:35:54;31.40;87.40
40952;DHT22;26682;51.660;19.338;2022-07-23T08:37:42;31.20;89.70
40952;DHT22;26682;51.660;19.338;2022-07-23T08:39:28;31.30;89.00
40952;DHT22;26682;51.660;19.338;2022-07-23T08:41:14;31.10;89.70
40952;DHT22;26682;51.660;19.338;2022-07-23T08:43:04;30.90;89.80
40952;DHT22;26682;51.660;19.338;2022-07-23T08:44:50;30.70;90.20
40952;DHT22;26682;51.660;19.338;2022-07-23T08:46:38;30.70;87.90
40952;DHT22;26682;51.660;19.338;2022-07-23T08:48:31;30.60;88.00
40952;DHT22;26682;51.660;19.338;2022-07-23T08:50:17;30.70;87.90
40952;DHT22;26682;51.660;19.338;2022-07-23T08:52:05;30.80;87.00
40952;DHT22;26682;51.660;19.338;2022-07-23T08:53:51;30.90;88.50
40952;DHT22;26682;51.660;19.338;2022-07-23T08:55:38;31.10;86.70
40952;DHT22;26682;51.660;19.338;2022-07-23T08:57:24;31.10;86.30
40952;DHT22;26682;51.660;19.338;2022-07-23T08:59:10;31.00;87.60
40952;DHT22;26682;51.660;19.338;2022-07-23T09:01:00;31.10;87.40
40952;DHT22;26682;51.660;19.338;2022-07-23T09:02:47;31.10;85.80
40952;DHT22;26682;51.660;19.338;2022-07-23T09:04:34;31.00;87.20
40952;DHT22;26682;51.660;19.338;2022-07-23T09:06:20;31.00;87.40
40952;DHT22;26682;51.660;19.338;2022-07-23T09:08:10;31.10;86.20
40952;DHT22;26682;51.660;19.338;2022-07-23T09:10:10;31.20;87.20
40952;DHT22;26682;51.660;19.338;2022-07-23T09:12:07;31.30;86.70
40952;DHT22;26682;51.660;19.338;2022-07-23T09:13:54;31.20;87.30
40952;DHT22;26682;51.660;19.338;2022-07-23T09:15:51;31.30;86.40
40952;DHT22;26682;51.660;19.338;2022-07-23T09:17:43;31.20;85.40
40952;DHT22;26682;51.660;19.338;2022-07-23T09:19:29;31.20;86.10
40952;DHT22;26682;51.660;19.338;2022-07-23T09:21:29;31.20;86.60
40952;DHT22;26682;51.660;19.338;2022-07-23T09:23:16;31.10;86.30
40952;DHT22;26682;51.660;19.338;2022-07-23T09:25:14;31.10;85.70
40952;DHT22;26682;51.660;19.338;2022-07-23T09:27:00;31.20;86.10
40952;DHT22;26682;51.660;19.338;2022-07-23T09:28:51;31.30;85.50
40952;DHT22;26682;51.660;19.338;2022-07-23T09:30:41;31.40;86.00
40952;DHT22;26682;51.660;19.338;2022-07-23T09:32:32;31.60;83.40
40952;DHT22;26682;51.660;19.338;2022-07-23T09:34:28;31.60;82.60
40952;DHT22;26682;51.660;19.338;2022-07-23T09:36:27;31.70;82.60
40952;DHT22;26682;51.660;19.338;2022-07-23T09:38:14;31.60;82.50
40952;DHT22;26682;51.660;19.338;2022-07-23T09:40:08;31.50;83.20
40952;DHT22;26682;51.660;19.338;2022-07-23T09:41:55;31.50;81.10
40952;DHT22;26682;51.660;19.338;2022-07-23T09:43:42;31.40;82.00
40952;DHT22;26682;51.660;19.338;2022-07-23T09:45:27;31.60;82.60
40952;DHT22;26682;51.660;19.338;2022-07-23T09:47:14;31.80;81.20
40952;DHT22;26682;51.660;19.338;2022-07-23T09:49:19;32.00;79.10
40952;DHT22;26682;51.660;19.338;2022-07-23T09:51:05;32.30;77.30
40952;DHT22;26682;51.660;19.338;2022-07-23T09:52:52;32.30;76.50
40952;DHT22;26682;51.660;19.338;2022-07-23T09:54:39;32.30;75.70
40952;DHT22;26682;51.660;19.338;2022-07-23T09:56:26;32.20;74.60
40952;DHT22;26682;51.660;19.338;2022-07-23T09:58:13;32.00;75.20
40952;DHT22;26682;51.660;19.338;2022-07-23T10:00:03;31.90;75.60
40952;DHT22;26682;51.660;19.338;2022-07-23T10:01:51;32.00;76.00
40952;DHT22;26682;51.660;19.338;2022-07-23T10:03:40;32.10;74.40
40952;DHT22;26682;51.660;19.338;2022-07-23T10:05:50;32.20;73.80
40952;DHT22;26682;51.660;19.338;2022-07-23T10:08:11;32.20;74.20
40952;DHT22;26682;51.660;19.338;2022-07-23T10:10:17;32.40;74.00
40952;DHT22;26682;51.660;19.338;2022-07-23T10:12:22;32.40;73.00
40952;DHT22;26682;51.660;19.338;2022-07-23T10:14:18;32.30;73.50
40952;DHT22;26682;51.660;19.338;2022-07-23T10:16:12;32.40;72.10
40952;DHT22;26682;51.660;19.338;2022-07-23T10:17:58;32.40;71.80
40952;DHT22;26682;51.660;19.338;2022-07-23T10:19:44;32.40;70.80
40952;DHT22;26682;51.660;19.338;2022-07-23T10:21:46;32.50;71.10
40952;DHT22;26682;51.660;19.338;2022-07-23T10:23:40;32.60;72.00
40952;DHT22;26682;51.660;19.338;2022-07-23T10:25:42;32.60;70.30
40952;DHT22;26682;51.660;19.338;2022-07-23T10:32:04;32.90;70.60
40952;DHT22;26682;51.660;19.338;2022-07-23T10:37:55;32.90;69.00
40952;DHT22;26682;51.660;19.338;2022-07-23T10:39:42;32.90;68.90
40952;DHT22;26682;51.660;19.338;2022-07-23T10:41:36;32.80;68.20
40952;DHT22;26682;51.660;19.338;2022-07-23T10:43:25;32.60;68.00
40952;DHT22;26682;51.660;19.338;2022-07-23T10:45:34;32.30;68.40
40952;DHT22;26682;51.660;19.338;2022-07-23T10:47:30;32.50;69.80
40952;DHT22;26682;51.660;19.338;2022-07-23T10:49:33;32.10;68.10
40952;DHT22;26682;51.660;19.338;2022-07-23T10:51:20;32.20;68.40
40952;DHT22;26682;51.660;19.338;2022-07-23T10:56:51;32.80;67.40
40952;DHT22;26682;51.660;19.338;2022-07-23T10:58:49;32.80;66.60
40952;DHT22;26682;51.660;19.338;2022-07-23T11:00:36;32.60;67.00
40952;DHT22;26682;51.660;19.338;2022-07-23T11:02:23;32.60;67.90
40952;DHT22;26682;51.660;19.338;2022-07-23T11:04:09;32.60;68.20
40952;DHT22;26682;51.660;19.338;2022-07-23T11:05:56;32.60;67.30
40952;DHT22;26682;51.660;19.338;2022-07-23T11:08:19;32.80;68.10
40952;DHT22;26682;51.660;19.338;2022-07-23T11:10:31;33.20;66.70
40952;DHT22;26682;51.660;19.338;2022-07-23T11:14:06;33.30;65.80
40952;DHT22;26682;51.660;19.338;2022-07-23T11:16:19;33.20;65.20
40952;DHT22;26682;51.660;19.338;2022-07-23T11:18:06;33.00;65.80
40952;DHT22;26682;51.660;19.338;2022-07-23T11:21:57;33.00;64.20
40952;DHT22;26682;51.660;19.338;2022-07-23T11:24:04;32.80;64.60
40952;DHT22;26682;51.660;19.338;2022-07-23T11:25:52;32.80;65.30
40952;DHT22;26682;51.660;19.338;2022-07-23T11:27:50;32.90;64.60